createdAt,value
2023-01-12T00:01:43.807Z,80.35
2023-01-12T00:03:48.267Z,80.38
2023-01-12T00:05:51.350Z,80.64
2023-01-12T00:07:54.538Z,80.75
2023-01-12T00:09:57.594Z,80.73
2023-01-12T00:12:00.823Z,80.94
2023-01-12T00:14:04.268Z,80.85
2023-01-12T00:16:26.279Z,80.89
2023-01-12T00:18:29.360Z,81.18
2023-01-12T00:20:33.800Z,81.10
2023-01-12T00:22:36.836Z,81.14
2023-01-12T00:24:42.068Z,81.17
2023-01-12T00:26:45.533Z,81.29
2023-01-12T00:28:48.594Z,81.22
2023-01-12T00:30:51.635Z,81.21
2023-01-12T00:32:54.708Z,81.16
2023-01-12T00:34:57.803Z,81.11
2023-01-12T00:37:02.591Z,81.15
2023-01-12T00:41:44.375Z,81.16
2023-01-12T00:44:01.356Z,81.18
2023-01-12T00:46:05.389Z,81.10
2023-01-12T00:48:12.695Z,81.20
2023-01-12T00:50:18.512Z,81.13
2023-01-12T00:52:31.786Z,81.21
2023-01-12T00:54:35.707Z,81.04
2023-01-12T00:56:39.715Z,80.98
2023-01-12T00:58:42.768Z,80.91
2023-01-12T01:00:45.939Z,80.79
2023-01-12T01:02:49.197Z,80.73
2023-01-12T01:04:52.656Z,80.54
2023-01-12T01:06:55.869Z,80.44
2023-01-12T01:09:00.480Z,80.39
2023-01-12T01:11:04.200Z,80.21
2023-01-12T01:13:07.389Z,80.23
2023-01-12T01:15:11.555Z,80.12
2023-01-12T01:17:14.739Z,79.93
2023-01-12T01:19:17.934Z,79.74
2023-01-12T01:21:21.242Z,79.63
2023-01-12T01:23:25.877Z,79.64
2023-01-12T01:25:30.425Z,79.41
2023-01-12T01:27:33.572Z,79.19
2023-01-12T01:29:36.963Z,79.19
2023-01-12T01:31:40.241Z,78.99
2023-01-12T01:33:44.095Z,78.54
2023-01-12T01:35:47.241Z,78.76
2023-01-12T01:37:50.449Z,78.50
2023-01-12T01:39:55.155Z,78.28
2023-01-12T01:42:01.147Z,78.02
2023-01-12T01:44:06.151Z,77.90
2023-01-12T01:46:13.078Z,77.72
2023-01-12T01:48:19.019Z,77.71
2023-01-12T01:50:28.796Z,77.72
2023-01-12T01:52:35.717Z,77.59
2023-01-12T01:54:42.787Z,77.92
2023-01-12T01:56:46.580Z,78.08
2023-01-12T01:58:55.478Z,78.24
2023-01-12T02:00:59.615Z,78.43
2023-01-12T02:03:04.856Z,78.60
2023-01-12T02:05:10.033Z,78.65
2023-01-12T02:07:13.602Z,78.80
2023-01-12T02:09:22.483Z,78.89
2023-01-12T02:11:44.058Z,78.92
2023-01-12T02:14:01.145Z,78.96
2023-01-12T02:16:21.975Z,78.85
2023-01-12T02:18:30.071Z,78.81
2023-01-12T02:21:05.739Z,78.75
2023-01-12T02:23:39.864Z,78.47
2023-01-12T02:26:09.890Z,78.28
2023-01-12T02:28:30.588Z,78.06
2023-01-12T02:31:03.761Z,78.07
2023-01-12T02:33:19.760Z,77.73
2023-01-12T02:35:29.494Z,77.65
2023-01-12T02:37:40.040Z,77.71
2023-01-12T02:39:50.965Z,77.55
2023-01-12T02:42:21.784Z,77.50
2023-01-12T02:44:32.581Z,77.57
2023-01-12T02:46:40.349Z,77.45
2023-01-12T02:48:49.465Z,77.51
2023-01-12T02:50:57.876Z,77.29
2023-01-12T02:53:05.786Z,77.20
2023-01-12T02:55:10.708Z,77.28
2023-01-12T02:57:16.013Z,77.33
2023-01-12T02:59:24.029Z,77.37
2023-01-12T03:01:28.448Z,77.12
2023-01-12T03:03:36.076Z,77.22
2023-01-12T03:05:41.265Z,77.09
2023-01-12T03:07:52.569Z,77.00
2023-01-12T03:09:59.895Z,77.13
2023-01-12T03:12:07.393Z,76.98
2023-01-12T03:14:12.203Z,76.92
2023-01-12T03:16:18.129Z,77.02
2023-01-12T03:18:29.795Z,76.96
2023-01-12T03:20:38.107Z,76.71
2023-01-12T03:22:42.975Z,76.71
2023-01-12T03:24:48.198Z,76.68
2023-01-12T03:26:54.811Z,76.62
2023-01-12T03:29:05.458Z,76.65
2023-01-12T03:31:12.912Z,76.55
2023-01-12T03:33:16.354Z,76.54
2023-01-12T03:35:22.817Z,76.45
2023-01-12T03:37:32.454Z,76.47
2023-01-12T03:39:43.464Z,76.29
2023-01-12T03:41:57.591Z,76.16
2023-01-12T03:44:04.904Z,76.08
2023-01-12T03:46:15.480Z,76.14
2023-01-12T03:48:22.646Z,75.84
2023-01-12T03:50:30.738Z,76.04
2023-01-12T03:52:37.499Z,75.84
2023-01-12T03:54:43.743Z,75.89
2023-01-12T03:56:48.884Z,75.93
2023-01-12T03:58:53.005Z,75.98
2023-01-12T04:00:56.423Z,75.90
2023-01-12T04:03:10.298Z,75.77
2023-01-12T04:05:15.381Z,75.88
2023-01-12T04:07:18.703Z,76.00
2023-01-12T04:09:25.409Z,76.01
2023-01-12T04:11:45.977Z,76.15
2023-01-12T04:13:49.176Z,76.22
2023-01-12T04:15:52.703Z,76.35
2023-01-12T04:17:56.003Z,76.43
2023-01-12T04:19:59.181Z,76.41
2023-01-12T04:22:20.287Z,76.57
2023-01-12T04:24:24.874Z,76.70
2023-01-12T04:26:28.089Z,76.72
2023-01-12T04:28:32.018Z,76.87
2023-01-12T04:30:35.705Z,76.74
2023-01-12T04:32:39.121Z,77.05
2023-01-12T04:34:42.296Z,77.03
2023-01-12T04:36:45.601Z,77.26
2023-01-12T04:38:49.220Z,77.41
2023-01-12T04:40:56.262Z,77.41
2023-01-12T04:43:01.349Z,77.44
2023-01-12T04:45:04.996Z,77.55
2023-01-12T04:47:08.157Z,77.64
2023-01-12T04:49:11.349Z,77.82
2023-01-12T04:51:15.489Z,77.85
2023-01-12T04:53:21.776Z,78.03
2023-01-12T04:55:25.018Z,78.11
2023-01-12T04:57:29.623Z,78.15
2023-01-12T04:59:32.844Z,78.20
2023-01-12T05:01:38.967Z,78.26
2023-01-12T05:03:42.608Z,78.28
2023-01-12T05:05:45.836Z,78.41
2023-01-12T05:08:02.878Z,78.33
2023-01-12T05:10:25.416Z,78.57
2023-01-12T05:12:30.006Z,78.61
2023-01-12T05:14:33.324Z,78.76
2023-01-12T05:16:36.621Z,78.70
2023-01-12T05:18:39.864Z,78.69
2023-01-12T05:20:43.127Z,78.97
2023-01-12T05:22:48.447Z,79.08
2023-01-12T05:24:51.663Z,79.29
2023-01-12T05:26:54.856Z,79.49
2023-01-12T05:28:59.517Z,79.71
2023-01-12T05:31:04.944Z,80.02
2023-01-12T05:33:08.103Z,80.30
2023-01-12T05:35:11.342Z,80.46
2023-01-12T05:37:14.539Z,80.85
2023-01-12T05:39:17.728Z,80.91
2023-01-12T05:41:22.963Z,81.23
2023-01-12T05:43:43.641Z,81.62
2023-01-12T05:45:48.271Z,81.66
2023-01-12T05:47:58.142Z,81.70
2023-01-12T05:50:01.365Z,82.15
2023-01-12T05:52:04.605Z,82.37
2023-01-12T05:54:08.028Z,82.59
2023-01-12T05:56:20.383Z,82.74
2023-01-12T05:58:23.830Z,82.98
2023-01-12T06:00:27.065Z,83.23
2023-01-12T06:02:31.633Z,83.30
2023-01-12T06:04:34.888Z,83.42
2023-01-12T06:06:38.109Z,83.60
2023-01-12T06:08:41.267Z,83.81
2023-01-12T06:10:44.465Z,83.85
2023-01-12T06:13:08.356Z,84.05
2023-01-12T06:15:11.875Z,84.04
2023-01-12T06:17:15.074Z,84.29
2023-01-12T06:19:19.675Z,84.33
2023-01-12T06:21:23.251Z,84.36
2023-01-12T06:23:35.341Z,84.38
2023-01-12T06:25:39.060Z,84.52
2023-01-12T06:27:42.223Z,84.64
2023-01-12T06:29:45.397Z,84.72
2023-01-12T06:31:48.628Z,84.67
2023-01-12T06:33:51.828Z,84.79
2023-01-12T06:35:57.080Z,85.02
2023-01-12T06:38:00.531Z,85.02
2023-01-12T06:40:04.346Z,85.04
2023-01-12T06:42:26.486Z,85.10
2023-01-12T06:44:29.952Z,85.23
2023-01-12T06:46:33.142Z,85.26
2023-01-12T06:48:38.664Z,85.34
2023-01-12T06:50:43.025Z,85.36
2023-01-12T06:52:47.742Z,85.29
2023-01-12T06:54:51.301Z,85.32
2023-01-12T06:56:55.737Z,85.47
2023-01-12T06:58:58.969Z,85.42
2023-01-12T07:01:02.614Z,85.60
2023-01-12T07:03:05.872Z,85.57
2023-01-12T07:05:10.019Z,85.53
2023-01-12T07:07:13.389Z,85.58
2023-01-12T07:09:17.970Z,85.72
2023-01-12T07:11:21.159Z,85.56
2023-01-12T07:13:24.332Z,85.56
2023-01-12T07:15:27.534Z,85.73
2023-01-12T07:17:30.758Z,85.80
2023-01-12T07:19:33.935Z,85.70
2023-01-12T07:21:37.291Z,85.71
2023-01-12T07:23:42.182Z,85.82
2023-01-12T07:25:46.776Z,85.76
2023-01-12T07:27:50.529Z,85.63
2023-01-12T07:29:53.794Z,85.72
2023-01-12T07:31:56.977Z,85.59
2023-01-12T07:34:00.134Z,85.71
2023-01-12T07:36:03.760Z,85.58
2023-01-12T07:38:07.292Z,85.48
2023-01-12T07:40:12.546Z,85.44
2023-01-12T07:42:26.456Z,85.51
2023-01-12T07:44:29.693Z,85.57
2023-01-12T07:46:32.939Z,85.45
2023-01-12T07:48:36.177Z,85.48
2023-01-12T07:50:39.499Z,85.59
2023-01-12T07:52:42.671Z,85.54
2023-01-12T07:54:45.887Z,85.52
2023-01-12T07:56:49.693Z,85.71
2023-01-12T07:58:54.282Z,85.71
2023-01-12T08:00:59.857Z,85.64
2023-01-12T08:03:06.258Z,85.53
2023-01-12T08:05:09.995Z,85.56
2023-01-12T08:07:14.906Z,85.66
2023-01-12T08:09:18.184Z,85.61
2023-01-12T08:11:22.909Z,85.46
2023-01-12T08:13:26.167Z,85.27
2023-01-12T08:15:36.507Z,85.27
2023-01-12T08:17:44.120Z,85.17
2023-01-12T08:19:51.268Z,84.97
2023-01-12T08:21:58.997Z,85.09
2023-01-12T08:24:05.770Z,84.82
2023-01-12T08:26:16.325Z,84.94
2023-01-12T08:28:25.221Z,84.77
2023-01-12T08:30:31.212Z,84.77
2023-01-12T08:32:35.596Z,84.72
2023-01-12T08:34:41.709Z,84.63
2023-01-12T08:36:45.641Z,84.63
2023-01-12T08:38:49.284Z,84.70
2023-01-12T08:41:10.187Z,84.75
2023-01-12T08:43:13.409Z,84.93
2023-01-12T08:45:16.716Z,84.86
2023-01-12T08:47:27.137Z,84.88
2023-01-12T08:49:32.016Z,85.15
2023-01-12T08:51:36.215Z,85.25
2023-01-12T08:53:39.627Z,85.40
2023-01-12T08:55:43.252Z,85.43
2023-01-12T08:57:46.852Z,85.61
2023-01-12T08:59:50.160Z,85.70
2023-01-12T09:01:53.521Z,85.68
2023-01-12T09:03:59.319Z,85.69
2023-01-12T09:06:10.403Z,85.80
2023-01-12T09:08:13.621Z,85.91
2023-01-12T09:10:17.352Z,85.96
2023-01-12T09:12:21.269Z,86.07
2023-01-12T09:14:26.407Z,86.19
2023-01-12T09:16:31.847Z,86.30
2023-01-12T09:18:35.528Z,86.30
2023-01-12T09:20:40.106Z,86.29
2023-01-12T09:22:43.287Z,86.53
2023-01-12T09:24:47.658Z,86.55
2023-01-12T09:26:50.948Z,86.62
2023-01-12T09:28:54.124Z,86.62
2023-01-12T09:31:01.789Z,86.76
2023-01-12T09:33:05.124Z,86.90
2023-01-12T09:35:09.181Z,86.79
2023-01-12T09:37:13.836Z,86.84
2023-01-12T09:39:27.321Z,86.93
2023-01-12T09:41:47.265Z,86.87
2023-01-12T09:44:07.677Z,87.03
2023-01-12T09:46:37.263Z,87.02
2023-01-12T09:48:40.503Z,86.99
2023-01-12T09:50:49.551Z,87.13
2023-01-12T09:52:58.864Z,87.14
2023-01-12T09:55:02.099Z,87.25
2023-01-12T09:57:24.432Z,87.23
2023-01-12T09:59:52.566Z,87.19
2023-01-12T10:01:57.093Z,87.18
2023-01-12T10:04:02.690Z,87.22
2023-01-12T10:06:06.851Z,87.31
2023-01-12T10:08:17.925Z,87.30
2023-01-12T10:10:21.209Z,87.36
2023-01-12T10:12:31.513Z,87.12
2023-01-12T10:14:57.357Z,87.23
2023-01-12T10:17:18.420Z,87.27
2023-01-12T10:19:28.324Z,87.19
2023-01-12T10:21:33.219Z,87.32
2023-01-12T10:23:37.937Z,87.26
2023-01-12T10:25:43.838Z,87.50
2023-01-12T10:27:48.954Z,87.44
2023-01-12T10:29:53.675Z,87.39
2023-01-12T10:31:56.927Z,87.47
2023-01-12T10:34:05.071Z,87.57
2023-01-12T10:36:11.094Z,87.56
2023-01-12T10:38:23.188Z,87.48
2023-01-12T10:40:30.745Z,87.56
2023-01-12T10:42:51.601Z,87.49
2023-01-12T10:45:14.590Z,87.53
2023-01-12T10:47:19.318Z,87.72
2023-01-12T10:49:24.083Z,87.74
2023-01-12T10:51:29.428Z,87.76
2023-01-12T10:53:39.451Z,87.75
2023-01-12T10:55:45.127Z,87.90
2023-01-12T10:57:49.623Z,87.80
2023-01-12T10:59:55.808Z,88.01
2023-01-12T11:02:15.135Z,88.02
2023-01-12T11:04:21.833Z,88.03
2023-01-12T11:06:27.812Z,88.17
2023-01-12T11:08:31.890Z,88.39
2023-01-12T11:10:37.460Z,88.16
2023-01-12T11:12:42.433Z,88.29
2023-01-12T11:14:59.285Z,88.36
2023-01-12T11:17:22.486Z,88.22
2023-01-12T11:19:30.599Z,88.26
2023-01-12T11:21:38.103Z,88.28
2023-01-12T11:23:47.743Z,88.04
2023-01-12T11:25:53.502Z,88.13
2023-01-12T11:28:03.191Z,88.15
2023-01-12T11:30:16.094Z,88.24
2023-01-12T11:32:28.477Z,88.20
2023-01-12T11:34:37.342Z,88.18
2023-01-12T11:36:44.029Z,88.11
2023-01-12T11:38:50.612Z,88.28
2023-01-12T11:40:58.404Z,88.13
2023-01-12T11:43:28.365Z,88.25
2023-01-12T11:45:41.864Z,88.41
2023-01-12T11:47:50.509Z,88.39
2023-01-12T11:50:01.086Z,88.33
2023-01-12T11:52:04.470Z,88.54
2023-01-12T11:54:11.337Z,88.50
2023-01-12T11:56:54.035Z,88.43
2023-01-12T11:59:08.437Z,88.47
2023-01-12T12:01:19.068Z,88.68
2023-01-12T12:03:41.058Z,88.69
2023-01-12T12:05:50.859Z,88.59
2023-01-12T12:08:08.280Z,88.72
2023-01-12T12:10:22.473Z,88.82
2023-01-12T12:12:37.906Z,88.86
2023-01-12T12:14:58.077Z,88.89
2023-01-12T12:17:06.827Z,88.96
2023-01-12T12:19:25.162Z,88.90
2023-01-12T12:21:57.378Z,88.96
2023-01-12T12:24:10.929Z,88.92
2023-01-12T12:26:22.844Z,88.93
2023-01-12T12:28:41.861Z,88.86
2023-01-12T12:31:09.471Z,89.00
2023-01-12T12:33:23.390Z,88.93
2023-01-12T12:35:42.057Z,88.81
2023-01-12T12:37:54.909Z,88.80
2023-01-12T12:40:02.238Z,88.80
2023-01-12T12:42:44.361Z,88.80
2023-01-12T12:45:15.790Z,88.81
2023-01-12T12:47:39.306Z,88.80
2023-01-12T12:49:44.522Z,88.71
2023-01-12T12:51:48.250Z,88.64
2023-01-12T12:53:52.357Z,88.61
2023-01-12T12:55:59.721Z,88.52
2023-01-12T12:58:05.272Z,88.42
2023-01-12T13:00:30.333Z,88.32
2023-01-12T13:02:53.504Z,88.24
2023-01-12T13:05:05.037Z,88.09
2023-01-12T13:07:08.806Z,88.11
2023-01-12T13:09:41.278Z,87.93
2023-01-12T13:11:50.374Z,87.78
2023-01-12T13:14:05.741Z,87.62
2023-01-12T13:16:49.307Z,87.30
2023-01-12T13:19:08.300Z,86.90
2023-01-12T13:21:30.736Z,86.73
2023-01-12T13:23:48.341Z,86.47
2023-01-12T13:25:58.691Z,86.22
2023-01-12T13:28:19.094Z,85.83
2023-01-12T13:30:40.514Z,85.51
2023-01-12T13:32:57.360Z,85.41
2023-01-12T13:35:02.042Z,85.21
2023-01-12T13:37:14.256Z,85.06
2023-01-12T13:39:17.646Z,84.74
2023-01-12T13:41:48.016Z,84.36
2023-01-12T13:43:54.823Z,83.59
2023-01-12T13:46:01.425Z,83.44
2023-01-12T13:48:07.372Z,83.33
2023-01-12T13:50:18.958Z,83.00
2023-01-12T13:52:23.748Z,82.98
2023-01-12T13:54:27.063Z,82.93
2023-01-12T13:56:30.311Z,82.88
2023-01-12T13:58:40.204Z,82.79
2023-01-12T14:00:44.155Z,82.64
2023-01-12T14:02:47.568Z,82.70
2023-01-12T14:05:01.172Z,82.45
2023-01-12T14:07:15.233Z,82.64
2023-01-12T14:09:28.429Z,82.44
2023-01-12T14:11:56.232Z,82.37
2023-01-12T14:14:27.061Z,82.38
2023-01-12T14:17:05.344Z,82.44
2023-01-12T14:19:28.015Z,82.35
2023-01-12T14:21:33.959Z,82.37
2023-01-12T14:23:38.604Z,82.33
2023-01-12T14:25:42.983Z,82.40
2023-01-12T14:27:53.975Z,82.40
2023-01-12T14:29:57.619Z,82.48
2023-01-12T14:32:00.756Z,82.51
2023-01-12T14:34:05.493Z,82.68
2023-01-12T14:36:14.215Z,82.72
2023-01-12T14:38:21.340Z,82.75
2023-01-12T14:40:31.846Z,82.95
2023-01-12T14:42:52.877Z,82.83
2023-01-12T14:45:14.415Z,82.94
2023-01-12T14:47:25.122Z,83.08
2023-01-12T14:49:30.081Z,83.25
2023-01-12T14:51:36.171Z,83.25
2023-01-12T14:53:41.831Z,83.50
2023-01-12T14:55:46.503Z,83.60
2023-01-12T14:57:52.357Z,83.86
2023-01-12T14:59:55.963Z,83.91
2023-01-12T15:02:22.453Z,84.07
2023-01-12T15:04:26.864Z,84.19
2023-01-12T15:06:30.259Z,84.37
2023-01-12T15:08:35.389Z,84.60
2023-01-12T15:10:40.976Z,84.70
2023-01-12T15:12:48.782Z,84.74
2023-01-12T15:14:52.014Z,85.08
2023-01-12T15:17:13.009Z,85.13
2023-01-12T15:19:33.423Z,85.29
2023-01-12T15:22:02.053Z,85.38
2023-01-12T15:24:36.010Z,85.51
2023-01-12T15:26:39.183Z,85.67
2023-01-12T15:28:44.805Z,85.54
2023-01-12T15:30:48.112Z,85.70
2023-01-12T15:32:51.312Z,85.77
2023-01-12T15:34:54.739Z,85.89
2023-01-12T15:36:58.201Z,86.03
2023-01-12T15:39:04.283Z,86.31
2023-01-12T15:41:08.517Z,86.37
2023-01-12T15:43:14.782Z,86.27
2023-01-12T15:45:29.363Z,86.21
2023-01-12T15:47:32.602Z,86.54
2023-01-12T15:49:36.314Z,86.63
2023-01-12T15:51:39.631Z,86.78
2023-01-12T15:53:42.886Z,86.90
2023-01-12T15:55:46.255Z,86.86
2023-01-12T15:57:50.913Z,86.97
2023-01-12T15:59:54.148Z,87.05
2023-01-12T16:01:58.979Z,87.02
2023-01-12T16:04:39.886Z,87.24
2023-01-12T16:06:31.173Z,87.22
2023-01-12T16:08:34.811Z,87.40
2023-01-12T16:10:58.740Z,87.36
2023-01-12T16:13:08.020Z,87.47
2023-01-12T16:15:18.338Z,87.57
2023-01-12T16:17:22.999Z,87.66
2023-01-12T16:19:27.670Z,87.74
2023-01-12T16:21:30.900Z,87.95
2023-01-12T16:23:34.289Z,87.93
2023-01-12T16:25:42.977Z,88.07
2023-01-12T16:27:48.366Z,88.02
2023-01-12T16:29:54.607Z,88.26
2023-01-12T16:32:00.718Z,88.18
2023-01-12T16:34:06.523Z,88.24
2023-01-12T16:36:12.989Z,88.17
2023-01-12T16:38:21.146Z,88.08
2023-01-12T16:40:24.875Z,88.25
2023-01-12T16:42:28.233Z,88.25
2023-01-12T16:44:33.214Z,88.30
2023-01-12T16:46:36.655Z,88.35
2023-01-12T16:48:42.304Z,88.35
2023-01-12T16:50:47.338Z,88.37
2023-01-12T16:52:50.607Z,88.24
2023-01-12T16:54:53.815Z,88.36
2023-01-12T16:56:58.144Z,88.30
2023-01-12T16:59:01.393Z,88.16
2023-01-12T17:01:11.623Z,88.40
2023-01-12T17:03:15.208Z,88.33
2023-01-12T17:05:18.591Z,88.18
2023-01-12T17:07:23.285Z,88.11
2023-01-12T17:09:27.263Z,88.24
2023-01-12T17:11:30.814Z,88.22
2023-01-12T17:13:34.220Z,88.17
2023-01-12T17:15:38.478Z,88.15
2023-01-12T17:17:41.786Z,88.14
2023-01-12T17:19:46.401Z,88.24
2023-01-12T17:21:50.887Z,88.22
2023-01-12T17:23:56.388Z,88.23
2023-01-12T17:26:03.133Z,88.29
2023-01-12T17:28:08.120Z,88.42
2023-01-12T17:30:13.576Z,88.46
2023-01-12T17:32:19.719Z,88.32
2023-01-12T17:34:27.601Z,88.29
2023-01-12T17:36:32.524Z,88.40
2023-01-12T17:38:40.193Z,88.46
2023-01-12T17:40:44.972Z,88.44
2023-01-12T17:43:02.836Z,88.49
2023-01-12T17:45:07.739Z,88.43
2023-01-12T17:47:12.317Z,88.49
2023-01-12T17:49:16.054Z,88.41
2023-01-12T17:51:20.628Z,88.51
2023-01-12T17:53:25.188Z,88.70
2023-01-12T17:55:29.612Z,88.63
2023-01-12T17:57:37.028Z,88.74
2023-01-12T17:59:40.714Z,88.69
2023-01-12T18:01:44.079Z,88.73
2023-01-12T18:03:48.195Z,88.77
2023-01-12T18:06:02.805Z,88.83
2023-01-12T18:08:08.732Z,88.95
2023-01-12T18:10:12.882Z,88.87
2023-01-12T18:12:17.813Z,88.96
2023-01-12T18:14:24.919Z,89.02
2023-01-12T18:16:28.847Z,89.00
2023-01-12T18:18:32.885Z,89.12
2023-01-12T18:20:36.615Z,89.20
2023-01-12T18:22:40.023Z,89.11
2023-01-12T18:24:43.263Z,89.22
2023-01-12T18:26:46.459Z,89.30
2023-01-12T18:28:49.817Z,89.28
2023-01-12T18:31:03.082Z,89.37
2023-01-12T18:33:06.448Z,89.33
2023-01-12T18:35:10.268Z,89.42
2023-01-12T18:37:13.854Z,89.43
2023-01-12T18:39:18.952Z,89.43
2023-01-12T18:41:55.885Z,89.49
2023-01-12T18:44:00.293Z,89.49
2023-01-12T18:46:09.101Z,89.57
2023-01-12T18:48:24.301Z,89.54
2023-01-12T18:50:45.234Z,89.55
2023-01-12T18:53:05.932Z,89.64
2023-01-12T18:55:09.956Z,89.74
2023-01-12T18:57:13.882Z,89.73
2023-01-12T18:59:17.144Z,89.83
2023-01-12T19:01:24.550Z,89.76
2023-01-12T19:03:27.822Z,89.88
2023-01-12T19:05:41.611Z,89.97
2023-01-12T19:08:03.790Z,89.92
2023-01-12T19:10:06.431Z,90.01
2023-01-12T19:12:09.649Z,89.97
2023-01-12T19:14:30.468Z,90.01
2023-01-12T19:16:52.430Z,90.08
2023-01-12T19:18:55.662Z,90.00
2023-01-12T19:21:23.284Z,90.11
2023-01-12T19:23:43.893Z,90.11
2023-01-12T19:26:04.489Z,90.15
2023-01-12T19:28:29.646Z,90.16
2023-01-12T19:30:34.958Z,90.15
2023-01-12T19:32:39.682Z,90.27
2023-01-12T19:34:42.926Z,90.17
2023-01-12T19:36:46.662Z,90.15
2023-01-12T19:38:52.667Z,90.23
2023-01-12T19:41:10.384Z,90.19
2023-01-12T19:43:19.407Z,90.17
2023-01-12T19:45:24.537Z,90.33
2023-01-12T19:47:27.745Z,90.29
2023-01-12T19:49:32.353Z,90.36
2023-01-12T19:51:35.573Z,90.44
2023-01-12T19:53:40.213Z,90.35
2023-01-12T19:55:44.712Z,90.41
2023-01-12T19:57:48.008Z,90.42
2023-01-12T19:59:51.205Z,90.36
2023-01-12T20:01:55.038Z,90.43
2023-01-12T20:03:58.492Z,90.52
2023-01-12T20:06:06.427Z,90.50
2023-01-12T20:08:11.329Z,90.50
2023-01-12T20:10:14.525Z,90.48
2023-01-12T20:12:18.169Z,90.48
2023-01-12T20:14:21.916Z,90.50
2023-01-12T20:16:25.127Z,90.51
2023-01-12T20:18:30.685Z,90.63
2023-01-12T20:20:34.010Z,90.64
2023-01-12T20:22:38.961Z,90.46
2023-01-12T20:24:42.188Z,90.66
2023-01-12T20:26:45.347Z,90.53
2023-01-12T20:28:48.530Z,90.56
2023-01-12T20:30:51.916Z,90.52
2023-01-12T20:32:55.258Z,90.52
2023-01-12T20:34:59.249Z,90.42
2023-01-12T20:37:02.489Z,90.36
2023-01-12T20:39:10.928Z,90.35
2023-01-12T20:41:14.469Z,90.35
2023-01-12T20:43:17.612Z,90.34
2023-01-12T20:45:21.100Z,90.34
2023-01-12T20:47:24.389Z,90.11
2023-01-12T20:49:27.903Z,90.18
2023-01-12T20:51:31.944Z,90.15
2023-01-12T20:53:35.422Z,90.11
2023-01-12T20:55:44.699Z,89.96
2023-01-12T20:57:49.071Z,89.92
2023-01-12T20:59:52.536Z,89.94
2023-01-12T21:01:55.761Z,89.93
2023-01-12T21:03:59.622Z,89.92
2023-01-12T21:06:03.152Z,89.94
2023-01-12T21:08:08.238Z,90.00
2023-01-12T21:10:14.148Z,89.89
2023-01-12T21:12:19.503Z,89.98
2023-01-12T21:14:23.340Z,90.00
2023-01-12T21:16:26.597Z,90.22
2023-01-12T21:18:29.958Z,90.07
2023-01-12T21:20:33.223Z,89.98
2023-01-12T21:22:36.423Z,90.23
2023-01-12T21:24:41.146Z,89.97
2023-01-12T21:26:44.344Z,89.93
2023-01-12T21:28:48.872Z,89.91
2023-01-12T21:30:52.375Z,89.90
2023-01-12T21:32:56.661Z,89.87
2023-01-12T21:34:59.937Z,89.82
2023-01-12T21:37:03.535Z,89.88
2023-01-12T21:39:06.776Z,89.77
2023-01-12T21:41:12.498Z,89.82
2023-01-12T21:43:18.165Z,89.75
2023-01-12T21:45:23.717Z,89.87
2023-01-12T21:47:26.874Z,89.74
2023-01-12T21:49:30.189Z,89.70
2023-01-12T21:51:33.910Z,89.51
2023-01-12T21:53:37.366Z,89.65
2023-01-12T21:55:40.567Z,89.56
2023-01-12T21:57:44.281Z,89.55
2023-01-12T21:59:48.657Z,89.38
2023-01-12T22:01:53.253Z,89.44
2023-01-12T22:03:57.258Z,89.48
2023-01-12T22:06:05.822Z,89.43
2023-01-12T22:08:09.232Z,89.22
2023-01-12T22:10:22.106Z,89.43
2023-01-12T22:12:25.289Z,89.11
2023-01-12T22:14:28.447Z,89.20
2023-01-12T22:16:31.597Z,89.27
2023-01-12T22:18:36.643Z,89.08
2023-01-12T22:20:42.240Z,88.98
2023-01-12T22:22:45.942Z,89.17
2023-01-12T22:24:49.069Z,88.98
2023-01-12T22:26:52.274Z,89.04
2023-01-12T22:28:55.820Z,88.98
2023-01-12T22:30:59.021Z,89.08
2023-01-12T22:33:02.775Z,88.95
2023-01-12T22:35:08.043Z,88.94
2023-01-12T22:37:11.167Z,88.79
2023-01-12T22:39:15.071Z,88.78
2023-01-12T22:41:21.920Z,88.80
2023-01-12T22:43:27.012Z,88.71
2023-01-12T22:45:30.329Z,88.83
2023-01-12T22:47:47.241Z,88.73
2023-01-12T22:49:51.554Z,88.69
2023-01-12T22:51:56.137Z,88.68
2023-01-12T22:53:59.442Z,88.58
2023-01-12T22:56:03.713Z,88.55
2023-01-12T22:58:07.307Z,88.58
2023-01-12T23:00:12.572Z,88.41
2023-01-12T23:02:29.665Z,88.51
2023-01-12T23:04:33.029Z,88.30
2023-01-12T23:06:37.358Z,88.44
2023-01-12T23:08:42.944Z,88.28
2023-01-12T23:10:46.111Z,88.21
2023-01-12T23:13:03.177Z,88.26
2023-01-12T23:15:07.531Z,88.21
2023-01-12T23:17:11.861Z,88.14
2023-01-12T23:19:15.167Z,88.18
2023-01-12T23:21:20.511Z,88.16
2023-01-12T23:23:23.721Z,88.28
2023-01-12T23:25:28.857Z,88.13
2023-01-12T23:27:33.681Z,88.12
2023-01-12T23:29:37.225Z,88.04
2023-01-12T23:31:40.494Z,88.05
2023-01-12T23:33:44.236Z,87.92
2023-01-12T23:35:47.456Z,87.97
2023-01-12T23:37:50.693Z,87.95
2023-01-12T23:39:53.997Z,87.76
2023-01-12T23:41:58.556Z,87.84
2023-01-12T23:44:03.402Z,87.80
2023-01-12T23:46:07.213Z,87.64
2023-01-12T23:48:10.464Z,87.68
2023-01-12T23:50:13.838Z,87.58
2023-01-12T23:52:17.289Z,87.58
2023-01-12T23:54:20.465Z,87.60
2023-01-12T23:56:23.814Z,87.65
2023-01-12T23:58:28.432Z,87.67
